createdAt,value
2022-11-18T00:04:39.214Z,6.40
2022-11-18T00:09:41.080Z,6.37
2022-11-18T00:14:42.938Z,6.32
2022-11-18T00:19:44.832Z,6.28
2022-11-18T00:24:46.723Z,6.25
2022-11-18T00:29:48.544Z,6.23
2022-11-18T00:34:50.377Z,6.22
2022-11-18T00:39:52.249Z,6.24
2022-11-18T00:44:54.238Z,6.24
2022-11-18T00:49:56.124Z,6.23
2022-11-18T00:54:58.075Z,6.24
2022-11-18T01:00:00.147Z,6.22
2022-11-18T01:05:02.044Z,6.18
2022-11-18T01:10:04.315Z,6.16
2022-11-18T01:15:06.605Z,6.13
2022-11-18T01:20:08.999Z,6.12
2022-11-18T01:25:11.045Z,6.12
2022-11-18T01:30:13.510Z,6.11
2022-11-18T01:35:15.686Z,6.10
2022-11-18T01:40:17.655Z,6.09
2022-11-18T01:45:29.030Z,6.09
2022-11-18T01:50:32.981Z,6.08
2022-11-18T01:55:41.838Z,6.05
2022-11-18T02:00:43.716Z,6.05
2022-11-18T02:05:48.283Z,6.04
2022-11-18T02:10:50.129Z,6.04
2022-11-18T02:16:13.995Z,6.06
2022-11-18T02:21:39.880Z,6.07
2022-11-18T02:27:21.997Z,6.07
2022-11-18T02:32:32.134Z,6.05
2022-11-18T02:37:46.894Z,6.06
2022-11-18T02:42:55.513Z,6.04
2022-11-18T02:48:05.692Z,6.09
2022-11-18T02:53:11.071Z,6.13
2022-11-18T02:58:16.622Z,6.15
2022-11-18T03:03:33.726Z,6.16
2022-11-18T03:08:43.232Z,6.16
2022-11-18T03:14:37.879Z,6.20
2022-11-18T03:19:51.507Z,6.22
2022-11-18T03:25:30.034Z,6.24
2022-11-18T03:30:34.536Z,6.22
2022-11-18T03:35:41.860Z,6.21
2022-11-18T03:40:53.129Z,6.17
2022-11-18T03:46:08.663Z,6.14
2022-11-18T03:51:15.304Z,6.14
2022-11-18T03:56:22.746Z,6.13
2022-11-18T04:01:31.780Z,6.14
2022-11-18T04:06:48.352Z,6.14
2022-11-18T04:12:03.072Z,6.09
2022-11-18T04:17:17.055Z,6.04
2022-11-18T04:22:19.422Z,5.98
2022-11-18T04:27:21.292Z,5.95
2022-11-18T04:32:23.271Z,5.89
2022-11-18T04:37:25.669Z,5.85
2022-11-18T04:42:28.274Z,5.86
2022-11-18T04:47:30.354Z,5.86
2022-11-18T04:52:32.163Z,5.84
2022-11-18T04:57:33.937Z,5.84
2022-11-18T05:02:35.973Z,5.83
2022-11-18T05:07:37.807Z,5.80
2022-11-18T05:12:49.011Z,5.77
2022-11-18T05:17:52.132Z,5.78
2022-11-18T05:22:54.066Z,5.76
2022-11-18T05:27:56.177Z,5.76
2022-11-18T05:32:58.076Z,5.77
2022-11-18T05:38:01.755Z,5.79
2022-11-18T05:43:12.743Z,5.79
2022-11-18T05:48:14.754Z,5.78
2022-11-18T05:53:19.075Z,5.78
2022-11-18T05:58:21.353Z,5.72
2022-11-18T06:03:30.917Z,5.65
2022-11-18T06:08:42.272Z,5.61
2022-11-18T06:14:03.771Z,5.59
2022-11-18T06:19:07.394Z,5.59
2022-11-18T06:24:10.152Z,5.57
2022-11-18T06:29:15.151Z,5.59
2022-11-18T06:34:17.686Z,5.58
2022-11-18T06:39:20.027Z,5.51
2022-11-18T06:44:22.537Z,5.46
2022-11-18T06:49:26.008Z,5.37
2022-11-18T06:54:27.864Z,5.31
2022-11-18T06:59:29.728Z,5.28
2022-11-18T07:04:33.695Z,5.27
2022-11-18T07:09:36.864Z,5.22
2022-11-18T07:14:38.753Z,5.18
2022-11-18T07:19:40.690Z,5.08
2022-11-18T07:24:43.426Z,5.02
2022-11-18T07:29:45.148Z,4.94
2022-11-18T07:34:46.983Z,4.85
2022-11-18T07:39:48.730Z,4.80
2022-11-18T07:44:50.527Z,4.73
2022-11-18T07:49:52.336Z,4.75
2022-11-18T07:54:54.372Z,4.78
2022-11-18T07:59:56.261Z,4.78
2022-11-18T08:04:58.084Z,4.74
2022-11-18T08:09:59.864Z,4.68
2022-11-18T08:15:01.684Z,4.59
2022-11-18T08:20:03.814Z,4.51
2022-11-18T08:25:05.972Z,4.47
2022-11-18T08:30:08.660Z,4.40
2022-11-18T08:35:11.558Z,4.37
2022-11-18T08:40:13.952Z,4.35
2022-11-18T08:45:15.908Z,4.30
2022-11-18T08:50:17.914Z,4.28
2022-11-18T08:55:19.748Z,4.27
2022-11-18T09:00:21.614Z,4.27
2022-11-18T09:05:23.473Z,4.27
2022-11-18T09:10:25.317Z,4.25
2022-11-18T09:15:29.698Z,4.19
2022-11-18T09:20:31.541Z,4.16
2022-11-18T09:25:33.409Z,4.10
2022-11-18T09:30:35.238Z,4.07
2022-11-18T09:35:42.415Z,4.05
2022-11-18T09:41:12.784Z,4.04
2022-11-18T09:46:33.964Z,4.00
2022-11-18T09:51:49.774Z,3.93
2022-11-18T09:56:54.194Z,3.81
2022-11-18T10:02:03.311Z,3.75
2022-11-18T10:07:19.279Z,3.73
2022-11-18T10:12:37.311Z,3.64
2022-11-18T10:17:57.347Z,3.60
2022-11-18T10:23:15.879Z,3.49
2022-11-18T10:28:30.911Z,3.34
2022-11-18T10:33:33.420Z,3.29
2022-11-18T10:38:35.317Z,3.23
2022-11-18T10:43:52.184Z,3.16
2022-11-18T10:49:09.150Z,3.08
2022-11-18T10:54:19.365Z,3.06
2022-11-18T10:59:35.089Z,3.06
2022-11-18T11:04:38.567Z,3.09
2022-11-18T11:09:40.556Z,3.02
2022-11-18T11:14:57.644Z,3.02
2022-11-18T11:20:20.893Z,3.04
2022-11-18T11:31:20.369Z,3.11
2022-11-18T11:36:22.256Z,3.09
2022-11-18T11:41:24.817Z,3.01
2022-11-18T11:47:14.516Z,2.92
2022-11-18T11:52:28.204Z,2.94
2022-11-18T11:58:01.382Z,2.98
2022-11-18T12:03:14.428Z,2.90
2022-11-18T12:08:31.127Z,2.81
2022-11-18T12:13:53.060Z,2.80
2022-11-18T12:19:18.157Z,2.78
2022-11-18T12:24:23.138Z,2.69
2022-11-18T12:29:27.935Z,2.66
2022-11-18T12:34:37.444Z,2.59
2022-11-18T12:39:41.947Z,2.60
2022-11-18T12:44:46.386Z,2.62
2022-11-18T12:49:48.197Z,2.63
2022-11-18T12:54:50.907Z,2.65
2022-11-18T12:59:52.775Z,2.62
2022-11-18T13:05:11.095Z,2.56
2022-11-18T13:10:23.737Z,2.45
2022-11-18T13:15:44.613Z,2.40
2022-11-18T13:21:30.887Z,2.31
2022-11-18T13:26:34.675Z,2.20
2022-11-18T13:31:48.739Z,2.13
2022-11-18T13:36:52.939Z,2.13
2022-11-18T13:42:04.308Z,2.11
2022-11-18T13:47:06.296Z,2.11
2022-11-18T13:52:18.989Z,2.09
2022-11-18T13:57:23.559Z,1.98
2022-11-18T14:02:25.449Z,1.90
2022-11-18T14:07:35.545Z,1.79
2022-11-18T14:12:40.788Z,1.66
2022-11-18T14:18:02.022Z,1.58
2022-11-18T14:23:05.676Z,1.58
2022-11-18T14:28:27.031Z,1.59
2022-11-18T14:33:30.116Z,1.54
2022-11-18T14:44:01.628Z,1.35
2022-11-18T14:49:06.554Z,1.26
2022-11-18T14:54:14.051Z,1.19
2022-11-18T14:59:19.092Z,1.10
2022-11-18T15:04:22.161Z,1.10
2022-11-18T15:09:24.865Z,1.08
2022-11-18T15:14:26.614Z,1.07
2022-11-18T15:19:31.988Z,1.11
2022-11-18T15:24:34.026Z,1.15
2022-11-18T15:29:35.905Z,1.17
2022-11-18T15:34:37.773Z,1.14
2022-11-18T15:39:39.894Z,1.17
2022-11-18T15:44:41.915Z,1.19
2022-11-18T15:49:45.433Z,1.22
2022-11-18T15:54:48.518Z,1.18
2022-11-18T15:59:50.333Z,1.17
2022-11-18T16:04:54.769Z,1.15
2022-11-18T16:10:15.074Z,1.19
2022-11-18T16:15:36.386Z,1.15
2022-11-18T16:20:38.209Z,1.16
2022-11-18T16:25:44.649Z,1.17
2022-11-18T16:31:09.115Z,1.14
2022-11-18T16:36:10.912Z,1.13
2022-11-18T16:41:31.285Z,1.13
2022-11-18T16:46:35.095Z,1.09
2022-11-18T16:51:37.008Z,1.08
2022-11-18T16:56:40.594Z,1.06
2022-11-18T17:01:42.917Z,0.98
2022-11-18T17:06:48.564Z,0.85
2022-11-18T17:11:52.347Z,0.84
2022-11-18T17:16:54.282Z,0.80
2022-11-18T17:21:56.656Z,0.70
2022-11-18T17:26:58.546Z,0.65
2022-11-18T17:32:01.527Z,0.71
2022-11-18T17:37:06.983Z,0.71
2022-11-18T17:42:15.106Z,0.70
2022-11-18T17:47:18.176Z,0.67
2022-11-18T17:52:20.074Z,0.65
2022-11-18T17:57:21.999Z,0.59
2022-11-18T18:02:24.026Z,0.55
2022-11-18T18:07:25.944Z,0.57
2022-11-18T18:12:46.202Z,0.60
2022-11-18T18:17:48.620Z,0.58
2022-11-18T18:22:50.449Z,0.55
2022-11-18T18:27:52.977Z,0.56
2022-11-18T18:32:54.807Z,0.58
2022-11-18T18:37:56.719Z,0.61
2022-11-18T18:42:58.578Z,0.60
2022-11-18T18:48:03.993Z,0.60
2022-11-18T18:53:05.908Z,0.64
2022-11-18T18:58:08.717Z,0.68
2022-11-18T19:03:10.795Z,0.69
2022-11-18T19:08:12.842Z,0.67
2022-11-18T19:13:14.742Z,0.66
2022-11-18T19:18:16.706Z,0.68
2022-11-18T19:23:19.626Z,0.71
2022-11-18T19:28:21.563Z,0.74
2022-11-18T19:33:23.557Z,0.71
2022-11-18T19:38:25.333Z,0.61
2022-11-18T19:43:27.442Z,0.60
2022-11-18T19:48:29.832Z,0.60
2022-11-18T19:53:32.091Z,0.57
2022-11-18T19:58:36.458Z,0.56
2022-11-18T20:03:38.558Z,0.56
2022-11-18T20:08:41.184Z,0.51
2022-11-18T20:13:44.499Z,0.50
2022-11-18T20:18:48.842Z,0.50
2022-11-18T20:23:58.698Z,0.44
2022-11-18T20:29:00.714Z,0.38
2022-11-18T20:34:03.046Z,0.43
2022-11-18T20:39:07.685Z,0.47
2022-11-18T20:44:09.575Z,0.48
2022-11-18T20:49:11.612Z,0.45
2022-11-18T20:54:13.718Z,0.47
2022-11-18T20:59:15.718Z,0.45
2022-11-18T21:04:17.821Z,0.48
2022-11-18T21:09:19.932Z,0.56
2022-11-18T21:14:25.536Z,0.60
2022-11-18T21:19:28.869Z,0.61
2022-11-18T21:24:33.058Z,0.58
2022-11-18T21:29:34.981Z,0.67
2022-11-18T21:34:36.873Z,0.70
2022-11-18T21:39:41.428Z,0.73
2022-11-18T21:44:43.248Z,0.76
2022-11-18T21:49:45.281Z,0.76
2022-11-18T21:54:47.124Z,0.77
2022-11-18T21:59:49.126Z,0.75
2022-11-18T22:04:53.831Z,0.70
2022-11-18T22:09:55.677Z,0.70
2022-11-18T22:14:57.466Z,0.69
2022-11-18T22:19:59.203Z,0.68
2022-11-18T22:25:01.012Z,0.67
2022-11-18T22:30:02.793Z,0.62
2022-11-18T22:35:04.895Z,0.59
2022-11-18T22:40:07.657Z,0.60
2022-11-18T22:45:09.667Z,0.52
2022-11-18T22:50:11.484Z,0.54
2022-11-18T22:55:13.262Z,0.48
2022-11-18T23:00:16.400Z,0.51
2022-11-18T23:05:18.400Z,0.52
2022-11-18T23:10:20.249Z,0.52
2022-11-18T23:15:22.149Z,0.46
2022-11-18T23:20:23.975Z,0.39
2022-11-18T23:25:25.795Z,0.37
2022-11-18T23:30:27.807Z,0.38
2022-11-18T23:35:29.709Z,0.42
2022-11-18T23:40:31.797Z,0.46
2022-11-18T23:45:33.644Z,0.49
2022-11-18T23:50:39.315Z,0.52
2022-11-18T23:55:41.393Z,0.51
